Time;durP1;ratioP1;P1;durP2;ratioP2;P2;SDS_P1;SDS_P2;PMS_P1;PMS_P2;Temp;Humidity;BMP_temperature;BMP_pressure;BME280_temperature;BME280_humidity;BME280_pressure;Samples;Min_cycle;Max_cycle;Signal;HPM_P1;HPM_P2
2022/10/31 00:00:53;;;;;;;14.77;13.30;;;11.50;99.90;;;;;;5112697;28;20228;-86
2022/10/31 00:03:21;;;;;;;14.30;12.80;;;11.40;99.90;;;;;;5112513;28;20264;-87
2022/10/31 00:05:51;;;;;;;14.80;12.73;;;11.40;99.90;;;;;;5111976;28;20207;-86
2022/10/31 00:08:20;;;;;;;14.70;13.25;;;11.50;99.90;;;;;;5112161;28;20231;-86
2022/10/31 00:10:48;;;;;;;14.30;12.75;;;11.50;99.90;;;;;;5112043;28;20219;-86
2022/10/31 00:13:16;;;;;;;13.95;12.65;;;11.40;99.90;;;;;;5112456;28;20210;-86
2022/10/31 00:15:46;;;;;;;13.43;12.23;;;11.50;99.90;;;;;;5112373;28;20218;-86
2022/10/31 00:18:14;;;;;;;13.48;12.18;;;11.50;99.90;;;;;;5112283;28;20218;-85
2022/10/31 00:20:43;;;;;;;12.25;11.07;;;11.40;99.90;;;;;;5111686;28;20228;-85
2022/10/31 00:23:12;;;;;;;12.18;11.02;;;11.40;99.90;;;;;;5114115;28;20222;-85
2022/10/31 00:25:41;;;;;;;11.52;10.38;;;11.30;99.90;;;;;;5114426;28;20214;-86
2022/10/31 00:28:12;;;;;;;11.40;10.30;;;11.30;99.90;;;;;;5114425;28;20223;-86
2022/10/31 00:30:40;;;;;;;14.73;10.35;;;11.30;99.90;;;;;;5113504;28;20235;-85
2022/10/31 00:33:10;;;;;;;11.68;10.48;;;11.30;99.90;;;;;;5113164;28;20207;-86
2022/10/31 00:35:38;;;;;;;12.02;11.02;;;11.20;99.90;;;;;;5114040;28;20202;-86
2022/10/31 00:38:07;;;;;;;11.52;10.43;;;11.20;99.90;;;;;;5113939;28;20210;-86
2022/10/31 00:40:35;;;;;;;12.93;10.68;;;11.20;99.90;;;;;;5113750;28;20223;-85
2022/10/31 00:43:03;;;;;;;10.82;9.90;;;11.30;99.90;;;;;;5113914;28;20202;-85
2022/10/31 00:45:32;;;;;;;11.18;10.23;;;11.30;99.90;;;;;;5113961;28;20284;-85
2022/10/31 00:48:00;;;;;;;11.63;9.65;;;11.40;99.90;;;;;;5114153;28;20234;-86
2022/10/31 00:50:31;;;;;;;15.23;11.98;;;11.40;99.90;;;;;;5113024;28;20319;-85
2022/10/31 00:52:59;;;;;;;11.25;10.25;;;11.40;99.90;;;;;;5114210;28;20210;-86
2022/10/31 00:55:27;;;;;;;11.25;10.35;;;11.40;99.90;;;;;;5113824;28;20215;-85
2022/10/31 00:57:55;;;;;;;11.90;10.73;;;11.50;99.90;;;;;;5113621;28;20207;-86
2022/10/31 01:00:24;;;;;;;11.93;10.68;;;11.50;99.90;;;;;;5113099;28;20231;-85
2022/10/31 01:02:52;;;;;;;11.18;10.13;;;11.50;99.90;;;;;;5113421;28;20207;-86
2022/10/31 01:05:20;;;;;;;11.45;10.32;;;11.50;99.90;;;;;;5114047;28;20208;-86
2022/10/31 01:07:50;;;;;;;10.75;9.82;;;11.40;99.90;;;;;;5113470;28;20222;-86
2022/10/31 01:10:19;;;;;;;11.95;10.73;;;11.40;99.90;;;;;;5113076;28;20224;-86
2022/10/31 01:12:48;;;;;;;11.70;10.40;;;11.50;99.90;;;;;;5113477;28;20207;-86
2022/10/31 01:15:19;;;;;;;11.48;10.48;;;11.40;99.90;;;;;;5113460;28;20218;-86
2022/10/31 01:17:47;;;;;;;10.30;9.40;;;11.50;99.90;;;;;;5113695;28;20196;-86
2022/10/31 01:20:16;;;;;;;11.70;10.55;;;11.50;99.90;;;;;;5112738;28;20231;-86
2022/10/31 01:22:44;;;;;;;13.02;11.70;;;11.50;99.90;;;;;;5113505;28;20207;-86
2022/10/31 01:25:14;;;;;;;11.40;10.43;;;11.50;99.90;;;;;;5113347;28;20200;-86
2022/10/31 01:27:42;;;;;;;10.48;9.45;;;11.50;99.90;;;;;;5113397;28;20223;-86
2022/10/31 01:30:11;;;;;;;11.35;10.35;;;11.50;99.90;;;;;;5112678;28;20228;-86
2022/10/31 01:32:40;;;;;;;10.35;9.43;;;11.50;99.90;;;;;;5113058;28;20207;-86
2022/10/31 01:35:08;;;;;;;10.05;9.10;;;11.50;99.90;;;;;;5112889;28;20203;-86
2022/10/31 01:37:36;;;;;;;10.52;9.52;;;11.60;99.90;;;;;;5113068;28;20203;-86
2022/10/31 01:40:05;;;;;;;12.55;10.20;;;11.60;99.90;;;;;;5112685;28;20223;-86
2022/10/31 01:42:35;;;;;;;10.05;9.20;;;11.60;99.90;;;;;;5112981;28;20207;-86
2022/10/31 01:45:05;;;;;;;12.13;10.55;;;11.60;99.90;;;;;;5113321;28;20206;-86
2022/10/31 01:47:42;;;;;;;9.43;8.65;;;11.60;99.90;;;;;;5112985;28;20211;-86
2022/10/31 01:50:25;;;;;;;11.07;10.00;;;11.70;99.90;;;;;;5112444;28;20224;-86
2022/10/31 01:52:53;;;;;;;11.00;10.00;;;11.60;99.90;;;;;;5113056;28;20196;-86
2022/10/31 01:55:26;;;;;;;10.93;9.93;;;11.60;99.90;;;;;;5113295;28;20221;-86
2022/10/31 01:58:03;;;;;;;10.98;9.77;;;11.60;99.90;;;;;;5113423;28;20207;-86
2022/10/31 02:00:32;;;;;;;11.55;10.50;;;11.60;99.90;;;;;;5112318;28;20227;-85
2022/10/31 02:03:00;;;;;;;11.25;10.00;;;11.60;99.90;;;;;;5112713;28;20207;-86
2022/10/31 02:05:31;;;;;;;10.82;9.82;;;11.60;99.90;;;;;;5112742;28;20211;-86
2022/10/31 02:08:03;;;;;;;10.82;9.93;;;11.70;99.90;;;;;;5113060;28;20227;-86
2022/10/31 02:10:33;;;;;;;10.35;9.30;;;11.70;99.90;;;;;;5112801;28;20239;-86
2022/10/31 02:13:06;;;;;;;9.77;8.93;;;11.70;99.90;;;;;;5113022;28;20230;-86
2022/10/31 02:15:35;;;;;;;10.50;9.57;;;11.70;99.90;;;;;;5112591;28;20203;-86
2022/10/31 02:18:04;;;;;;;9.38;8.57;;;11.60;99.90;;;;;;5112601;28;20214;-86
2022/10/31 02:20:40;;;;;;;9.45;8.65;;;11.60;99.90;;;;;;5111999;28;20230;-86
2022/10/31 02:23:56;;;;;;;12.57;9.45;;;11.60;99.90;;;;;;5113024;28;20199;-86
2022/10/31 02:26:44;;;;;;;10.15;8.10;;;11.60;99.90;;;;;;5085704;28;20200;-86
2022/10/31 02:29:38;;;;;;;14.85;8.32;;;11.60;99.90;;;;;;5112034;28;20220;-86
2022/10/31 02:32:15;;;;;;;7.13;6.53;;;11.60;99.90;;;;;;5112577;28;20220;-86
2022/10/31 02:34:52;;;;;;;7.90;7.22;;;11.50;99.90;;;;;;5112696;28;20196;-86
2022/10/31 02:37:26;;;;;;;6.18;5.65;;;11.50;99.90;;;;;;5112910;28;20226;-86
2022/10/31 02:40:00;;;;;;;6.47;5.47;;;11.50;99.90;;;;;;5112381;28;20223;-85
2022/10/31 02:42:34;;;;;;;7.22;6.57;;;11.50;99.90;;;;;;5112754;28;20212;-86
2022/10/31 02:45:09;;;;;;;7.80;7.00;;;11.60;99.90;;;;;;5112411;28;20199;-85
2022/10/31 02:47:40;;;;;;;10.45;7.82;;;11.60;99.90;;;;;;5112740;28;20206;-86
2022/10/31 02:50:13;;;;;;;6.13;5.63;;;11.60;99.90;;;;;;5112008;28;20231;-86
2022/10/31 02:52:42;;;;;;;9.20;6.15;;;11.60;99.90;;;;;;5112815;28;20197;-86
2022/10/31 02:55:12;;;;;;;7.50;6.70;;;11.60;99.90;;;;;;5112810;28;20206;-86
2022/10/31 02:57:42;;;;;;;7.85;7.00;;;11.60;99.90;;;;;;5116034;28;20212;-86
2022/10/31 03:00:12;;;;;;;6.13;5.55;;;11.60;99.90;;;;;;5115389;28;20211;-86
2022/10/31 03:03:01;;;;;;;6.55;6.05;;;11.60;99.90;;;;;;5116073;28;20203;-86
2022/10/31 03:05:46;;;;;;;5.30;4.80;;;11.60;99.90;;;;;;5115787;28;20208;-86
2022/10/31 03:08:23;;;;;;;13.13;5.93;;;11.50;99.90;;;;;;5116093;28;20267;-86
2022/10/31 03:10:57;;;;;;;6.38;5.05;;;11.50;99.90;;;;;;5116146;28;20227;-86
2022/10/31 03:13:34;;;;;;;5.10;4.70;;;11.50;99.90;;;;;;5115860;28;20196;-86
2022/10/31 03:16:10;;;;;;;5.90;5.30;;;11.40;99.90;;;;;;5115910;28;20214;-86
2022/10/31 03:18:41;;;;;;;5.32;4.93;;;11.40;99.90;;;;;;5115527;28;20203;-86
2022/10/31 03:21:15;;;;;;;4.80;4.50;;;11.40;99.90;;;;;;5115676;28;20226;-86
2022/10/31 03:23:46;;;;;;;4.88;4.47;;;11.40;99.90;;;;;;5115779;28;20204;-86
2022/10/31 03:26:16;;;;;;;4.75;4.43;;;11.30;99.90;;;;;;5115612;28;20214;-86
2022/10/31 03:28:50;;;;;;;5.47;4.97;;;11.30;99.90;;;;;;5115020;28;20266;-86
2022/10/31 03:31:23;;;;;;;6.03;5.60;;;11.30;99.90;;;;;;5115308;28;20231;-86
2022/10/31 03:33:54;;;;;;;6.32;5.75;;;11.30;99.90;;;;;;5115728;28;20208;-86
2022/10/31 03:36:23;;;;;;;5.82;5.20;;;11.30;99.90;;;;;;5115381;28;20211;-86
2022/10/31 03:38:53;;;;;;;4.70;4.30;;;11.30;99.90;;;;;;5114977;28;20203;-87
2022/10/31 03:41:26;;;;;;;4.45;4.05;;;11.30;99.90;;;;;;5115358;28;20216;-86
2022/10/31 03:43:59;;;;;;;5.32;4.55;;;11.30;99.90;;;;;;5115457;28;20211;-86
2022/10/31 03:46:27;;;;;;;5.60;5.13;;;11.20;99.90;;;;;;5115242;28;20206;-86
2022/10/31 03:48:58;;;;;;;4.80;4.22;;;11.20;99.90;;;;;;5114693;28;20252;-86
2022/10/31 03:51:33;;;;;;;5.22;4.70;;;11.20;99.90;;;;;;5115014;28;20227;-86
2022/10/31 03:54:09;;;;;;;4.55;4.25;;;11.20;99.90;;;;;;5115100;28;20217;-87
2022/10/31 03:56:42;;;;;;;5.75;4.97;;;11.20;99.90;;;;;;5115374;28;20208;-86
2022/10/31 03:59:17;;;;;;;4.55;4.25;;;11.10;99.90;;;;;;5114469;28;20211;-86
2022/10/31 04:01:48;;;;;;;4.10;3.83;;;11.10;99.90;;;;;;5114982;28;20226;-86
2022/10/31 04:04:20;;;;;;;5.43;4.93;;;11.10;99.90;;;;;;5114586;28;20277;-86
2022/10/31 04:06:50;;;;;;;4.68;4.28;;;11.00;99.90;;;;;;5115047;28;20207;-86
2022/10/31 04:09:20;;;;;;;5.72;4.32;;;10.90;99.90;;;;;;5114241;28;20224;-86
2022/10/31 04:11:54;;;;;;;3.75;3.55;;;10.90;99.90;;;;;;5114808;28;20220;-86
2022/10/31 04:14:25;;;;;;;4.45;4.15;;;10.80;99.90;;;;;;5114496;28;20211;-86
2022/10/31 04:16:53;;;;;;;4.72;4.32;;;10.90;99.90;;;;;;5114960;28;20214;-86
2022/10/31 04:19:23;;;;;;;4.05;3.75;;;10.90;99.90;;;;;;5114245;28;20218;-85
2022/10/31 04:21:51;;;;;;;3.47;3.28;;;10.90;99.90;;;;;;5114524;28;20223;-85
2022/10/31 04:24:19;;;;;;;4.47;4.10;;;10.90;99.90;;;;;;5114389;28;20203;-85
2022/10/31 04:26:47;;;;;;;4.18;3.88;;;10.90;99.90;;;;;;5114202;28;20207;-85
2022/10/31 04:29:16;;;;;;;4.70;4.30;;;10.90;99.90;;;;;;5113443;28;20215;-85
2022/10/31 04:31:44;;;;;;;4.82;4.35;;;10.90;99.90;;;;;;5114336;28;20224;-85
2022/10/31 04:34:12;;;;;;;4.32;4.00;;;10.90;99.90;;;;;;5114173;28;20211;-85
2022/10/31 04:36:42;;;;;;;4.70;4.30;;;11.00;99.90;;;;;;5114458;28;20207;-85
2022/10/31 04:39:10;;;;;;;4.28;3.92;;;11.00;99.90;;;;;;5113462;28;20199;-86
2022/10/31 04:41:38;;;;;;;4.97;4.57;;;11.00;99.90;;;;;;5114199;28;20228;-84
2022/10/31 04:44:06;;;;;;;4.93;4.53;;;11.00;99.90;;;;;;5114425;28;20214;-84
2022/10/31 04:46:35;;;;;;;4.20;3.90;;;11.00;99.90;;;;;;5114158;28;20211;-85
2022/10/31 04:49:03;;;;;;;4.13;3.83;;;11.00;99.90;;;;;;5113254;28;20203;-85
2022/10/31 04:51:31;;;;;;;3.92;3.63;;;11.00;99.90;;;;;;5113862;28;20224;-85
2022/10/31 04:54:01;;;;;;;4.50;4.10;;;11.00;99.90;;;;;;5113675;28;20293;-85
2022/10/31 04:56:29;;;;;;;4.80;4.40;;;10.90;99.90;;;;;;5113887;28;20212;-85
2022/10/31 04:58:57;;;;;;;4.53;4.13;;;11.00;99.90;;;;;;5113580;28;20219;-85
2022/10/31 05:01:26;;;;;;;3.38;3.17;;;11.00;99.90;;;;;;5113632;28;20215;-85
2022/10/31 05:03:54;;;;;;;4.32;3.92;;;11.00;99.90;;;;;;5113468;28;20288;-85
2022/10/31 05:06:22;;;;;;;5.15;4.40;;;11.00;99.90;;;;;;5113514;28;20207;-84
2022/10/31 05:08:51;;;;;;;4.32;4.03;;;11.00;99.90;;;;;;5112896;28;20203;-85
2022/10/31 05:11:20;;;;;;;3.75;3.47;;;11.00;99.90;;;;;;5113404;28;20232;-84
2022/10/31 05:13:49;;;;;;;4.32;3.92;;;11.10;99.90;;;;;;5113464;28;20199;-86
2022/10/31 05:16:17;;;;;;;4.40;4.07;;;11.00;99.90;;;;;;5113522;28;20206;-85
2022/10/31 05:18:45;;;;;;;4.00;3.70;;;11.10;99.90;;;;;;5112393;28;20222;-86
2022/10/31 05:21:13;;;;;;;4.90;4.45;;;11.00;99.90;;;;;;5113218;28;20240;-85
2022/10/31 05:23:41;;;;;;;4.40;4.10;;;11.00;99.90;;;;;;5113923;28;20293;-85
2022/10/31 05:26:15;;;;;;;4.85;4.45;;;11.10;99.90;;;;;;5113453;28;20242;-85
2022/10/31 05:28:45;;;;;;;5.00;4.60;;;11.10;99.90;;;;;;5112567;28;20204;-85
2022/10/31 05:31:13;;;;;;;5.50;4.32;;;11.00;99.90;;;;;;5112706;28;20238;-85
2022/10/31 05:33:41;;;;;;;5.13;4.57;;;11.10;99.90;;;;;;5112830;28;20206;-85
2022/10/31 05:36:10;;;;;;;4.18;3.88;;;11.10;99.90;;;;;;5112804;28;20259;-85
2022/10/31 05:38:38;;;;;;;5.88;5.38;;;11.10;99.90;;;;;;5112684;28;20199;-85
2022/10/31 05:41:06;;;;;;;5.53;5.03;;;11.10;99.90;;;;;;5113092;28;20249;-84
2022/10/31 05:43:34;;;;;;;5.35;4.50;;;11.10;99.90;;;;;;5113194;28;20267;-85
2022/10/31 05:46:04;;;;;;;4.78;4.35;;;11.10;99.90;;;;;;5113196;28;20199;-85
2022/10/31 05:48:33;;;;;;;5.05;4.65;;;11.10;99.90;;;;;;5112492;28;20218;-86
2022/10/31 05:51:01;;;;;;;4.68;4.25;;;11.10;99.90;;;;;;5112713;28;20234;-86
2022/10/31 05:53:29;;;;;;;4.78;4.38;;;11.10;99.90;;;;;;5112967;28;20200;-84
2022/10/31 05:55:57;;;;;;;5.13;4.60;;;11.00;99.90;;;;;;5113218;28;20201;-85
2022/10/31 05:58:26;;;;;;;5.00;4.60;;;11.00;99.90;;;;;;5112532;28;20208;-85
2022/10/31 06:00:54;;;;;;;5.55;5.05;;;10.90;99.90;;;;;;5112994;28;20236;-86
2022/10/31 06:03:24;;;;;;;5.72;4.78;;;10.90;99.90;;;;;;5113296;28;20256;-85
2022/10/31 06:05:53;;;;;;;4.10;3.80;;;10.90;99.90;;;;;;5112607;28;20203;-85
2022/10/31 06:08:22;;;;;;;5.50;5.00;;;10.90;99.90;;;;;;5112412;28;20208;-85
2022/10/31 06:10:52;;;;;;;4.03;3.72;;;10.90;99.90;;;;;;5112539;28;20234;-85
2022/10/31 06:13:21;;;;;;;4.60;4.00;;;10.90;99.90;;;;;;5112767;28;20212;-85
2022/10/31 06:15:49;;;;;;;5.22;4.50;;;10.90;99.90;;;;;;5113005;28;20230;-85
2022/10/31 06:18:17;;;;;;;4.07;3.67;;;11.00;99.90;;;;;;5113249;28;20206;-85
2022/10/31 06:20:47;;;;;;;4.05;3.75;;;11.00;99.90;;;;;;5112600;28;20226;-84
2022/10/31 06:23:15;;;;;;;4.88;4.50;;;11.00;99.90;;;;;;5112747;28;20214;-85
2022/10/31 06:25:44;;;;;;;4.97;4.57;;;11.10;99.90;;;;;;5112382;28;20199;-85
2022/10/31 06:28:12;;;;;;;4.82;4.10;;;11.00;99.90;;;;;;5113103;28;20200;-84
2022/10/31 06:30:40;;;;;;;5.25;4.50;;;11.10;99.90;;;;;;5113397;28;20234;-85
2022/10/31 06:33:09;;;;;;;5.03;4.63;;;11.10;99.90;;;;;;5116549;28;20204;-85
2022/10/31 06:35:37;;;;;;;4.65;4.25;;;11.20;99.90;;;;;;5116330;28;20212;-85
2022/10/31 06:38:07;;;;;;;6.00;5.22;;;11.20;99.90;;;;;;5116367;28;20204;-85
2022/10/31 06:40:35;;;;;;;4.97;4.50;;;11.10;99.90;;;;;;5116218;28;20234;-85
2022/10/31 06:43:03;;;;;;;5.13;4.72;;;11.10;99.90;;;;;;5116601;28;20204;-85
2022/10/31 06:45:32;;;;;;;4.88;4.47;;;11.20;99.90;;;;;;5116751;28;20204;-85
2022/10/31 06:48:00;;;;;;;7.10;5.32;;;11.20;99.90;;;;;;5116209;28;20203;-85
2022/10/31 06:50:44;;;;;;;4.72;4.32;;;11.20;99.90;;;;;;5115578;27;20330;-85
2022/10/31 06:53:14;;;;;;;6.50;5.90;;;11.20;99.90;;;;;;5115975;28;20204;-85
2022/10/31 06:55:43;;;;;;;9.02;6.30;;;11.30;99.90;;;;;;5116495;28;20291;-85
2022/10/31 06:58:12;;;;;;;6.43;5.80;;;11.30;99.90;;;;;;5116225;28;20199;-85
2022/10/31 07:00:40;;;;;;;5.22;4.72;;;11.30;99.90;;;;;;5115785;28;20219;-85
2022/10/31 07:03:12;;;;;;;7.65;4.78;;;11.30;99.90;;;;;;5115910;28;20195;-85
2022/10/31 07:05:41;;;;;;;7.88;4.97;;;11.30;99.90;;;;;;5115848;28;20210;-85
2022/10/31 07:08:11;;;;;;;6.75;4.72;;;11.30;99.90;;;;;;5116276;28;20206;-85
2022/10/31 07:10:43;;;;;;;5.80;5.20;;;11.40;99.90;;;;;;5115750;28;20224;-85
2022/10/31 07:13:13;;;;;;;5.70;5.07;;;11.30;99.90;;;;;;5115852;28;20204;-86
2022/10/31 07:15:42;;;;;;;5.30;4.70;;;11.30;99.90;;;;;;5115761;28;20204;-85
2022/10/31 07:18:12;;;;;;;5.32;4.88;;;11.30;99.90;;;;;;5115493;28;20207;-85
2022/10/31 07:20:40;;;;;;;6.15;5.35;;;11.40;99.90;;;;;;5115442;28;20223;-86
2022/10/31 07:23:10;;;;;;;7.55;4.72;;;11.40;99.90;;;;;;5115969;28;20211;-86
2022/10/31 07:25:39;;;;;;;4.68;4.32;;;11.40;99.90;;;;;;5115396;28;20200;-86
2022/10/31 07:28:10;;;;;;;5.45;5.00;;;11.40;99.90;;;;;;5115418;28;20215;-85
2022/10/31 07:30:39;;;;;;;5.18;4.72;;;11.40;99.90;;;;;;5115079;28;20235;-85
2022/10/31 07:33:07;;;;;;;5.18;4.78;;;11.40;99.90;;;;;;5115231;28;20213;-86
2022/10/31 07:35:36;;;;;;;15.63;4.47;;;11.40;99.90;;;;;;5115182;28;20200;-86
2022/10/31 07:38:11;;;;;;;5.97;5.38;;;11.40;99.90;;;;;;5115413;28;20219;-85
2022/10/31 07:40:40;;;;;;;6.05;5.15;;;11.50;99.90;;;;;;5114795;28;20223;-86
2022/10/31 07:43:12;;;;;;;7.72;5.53;;;11.50;99.90;;;;;;5114965;28;20206;-85
2022/10/31 07:45:41;;;;;;;7.38;5.80;;;11.50;99.90;;;;;;5115248;28;20231;-86
2022/10/31 07:48:10;;;;;;;6.53;5.93;;;11.50;99.90;;;;;;5115471;28;20208;-85
2022/10/31 07:50:39;;;;;;;7.22;6.10;;;11.60;99.90;;;;;;5114776;28;20230;-85
2022/10/31 07:53:09;;;;;;;5.22;4.82;;;11.60;99.90;;;;;;5115146;28;20199;-85
2022/10/31 07:55:37;;;;;;;6.18;5.65;;;11.70;99.90;;;;;;5114994;28;20200;-86
2022/10/31 07:58:07;;;;;;;7.03;6.43;;;11.70;99.90;;;;;;5115178;28;20199;-86
2022/10/31 08:00:38;;;;;;;7.25;6.28;;;11.70;99.90;;;;;;5114610;28;20226;-85
2022/10/31 08:03:09;;;;;;;8.80;7.53;;;11.70;99.90;;;;;;5115252;28;20212;-85
2022/10/31 08:05:37;;;;;;;8.05;7.25;;;11.80;99.90;;;;;;5114626;28;20211;-85
2022/10/31 08:08:06;;;;;;;9.18;6.90;;;11.80;99.90;;;;;;5114866;28;20203;-86
2022/10/31 08:10:35;;;;;;;6.70;6.13;;;11.90;99.90;;;;;;5114402;28;20255;-86
2022/10/31 08:13:06;;;;;;;5.93;5.30;;;11.90;99.90;;;;;;5114594;28;20229;-86
2022/10/31 08:15:37;;;;;;;6.80;6.07;;;11.90;99.90;;;;;;5114606;28;20211;-85
2022/10/31 08:18:11;;;;;;;6.90;6.10;;;12.00;99.90;;;;;;5114896;28;20215;-85
2022/10/31 08:20:40;;;;;;;7.00;6.30;;;12.00;99.90;;;;;;5114166;28;20219;-85
2022/10/31 08:23:10;;;;;;;7.32;6.28;;;11.90;99.90;;;;;;5114747;28;20281;-86
2022/10/31 08:25:38;;;;;;;9.05;6.43;;;11.90;99.90;;;;;;5114615;28;20206;-86
2022/10/31 08:28:07;;;;;;;10.75;6.20;;;12.00;99.90;;;;;;5114569;28;20210;-87
2022/10/31 08:30:38;;;;;;;7.55;6.70;;;12.00;99.90;;;;;;5113785;28;20238;-85
2022/10/31 08:33:11;;;;;;;8.07;7.28;;;12.00;99.90;;;;;;5113919;28;20227;-85
2022/10/31 08:35:39;;;;;;;7.97;7.13;;;12.10;99.90;;;;;;5114204;28;20329;-86
2022/10/31 08:38:09;;;;;;;11.32;7.85;;;12.10;99.90;;;;;;5114205;28;20204;-85
2022/10/31 08:40:38;;;;;;;8.77;7.82;;;12.20;99.90;;;;;;5113909;28;20230;-84
2022/10/31 08:43:08;;;;;;;9.38;8.23;;;12.20;99.90;;;;;;5114168;28;20206;-85
2022/10/31 08:45:36;;;;;;;9.70;8.77;;;12.20;99.90;;;;;;5113842;28;20211;-85
2022/10/31 08:48:07;;;;;;;12.68;8.95;;;12.20;99.90;;;;;;5113886;28;20208;-85
2022/10/31 08:50:37;;;;;;;11.48;8.75;;;12.20;99.90;;;;;;5113342;28;20235;-85
2022/10/31 08:53:08;;;;;;;9.63;8.07;;;12.30;99.90;;;;;;5112863;28;20224;-85
2022/10/31 08:55:37;;;;;;;12.15;9.20;;;12.30;99.90;;;;;;5114680;28;20200;-86
2022/10/31 08:58:08;;;;;;;14.25;8.70;;;12.30;99.90;;;;;;5114490;28;20204;-85
2022/10/31 09:00:36;;;;;;;15.23;10.10;;;12.30;99.90;;;;;;5113500;28;20228;-86
2022/10/31 09:03:07;;;;;;;11.10;9.95;;;12.30;99.90;;;;;;5113526;28;20242;-86
2022/10/31 09:05:37;;;;;;;10.90;9.07;;;12.40;99.90;;;;;;5113878;28;20215;-86
2022/10/31 09:08:07;;;;;;;10.00;8.98;;;12.40;99.90;;;;;;5113626;28;20204;-85
2022/10/31 09:10:43;;;;;;;10.77;9.68;;;12.50;99.90;;;;;;5113216;28;20219;-86
2022/10/31 09:13:13;;;;;;;10.27;9.13;;;12.50;99.90;;;;;;5113425;28;20221;-86
2022/10/31 09:15:44;;;;;;;11.68;10.07;;;12.50;99.90;;;;;;5113763;28;20198;-86
2022/10/31 09:18:13;;;;;;;12.95;9.95;;;12.50;99.90;;;;;;5113603;28;20214;-86
2022/10/31 09:20:45;;;;;;;12.75;11.00;;;12.60;99.90;;;;;;5113020;28;20227;-86
2022/10/31 09:23:15;;;;;;;11.73;10.52;;;12.60;99.90;;;;;;5113505;28;20198;-86
2022/10/31 09:25:44;;;;;;;12.73;10.77;;;12.70;99.90;;;;;;5113590;28;20208;-86
2022/10/31 09:28:19;;;;;;;10.38;9.40;;;12.60;99.90;;;;;;5113186;28;20227;-86
2022/10/31 09:30:48;;;;;;;11.07;9.95;;;12.70;99.90;;;;;;5113302;28;20322;-86
2022/10/31 09:33:17;;;;;;;11.50;10.30;;;12.70;99.90;;;;;;5113003;28;20222;-86
2022/10/31 09:35:47;;;;;;;15.55;11.18;;;12.60;99.90;;;;;;5113071;28;20207;-86
2022/10/31 09:38:18;;;;;;;16.55;10.95;;;12.70;99.90;;;;;;5113418;28;20235;-86
2022/10/31 09:40:50;;;;;;;12.18;9.75;;;12.70;99.90;;;;;;5113431;28;20280;-84
2022/10/31 09:43:26;;;;;;;12.10;10.88;;;12.80;99.90;;;;;;5113236;28;20196;-86
2022/10/31 09:46:02;;;;;;;12.50;11.30;;;12.70;99.90;;;;;;5113117;28;20199;-86
2022/10/31 09:48:54;;;;;;;11.27;10.05;;;12.80;99.90;;;;;;5112643;28;20215;-85
2022/10/31 09:51:29;;;;;;;13.38;11.65;;;12.70;99.90;;;;;;5112994;28;20246;-86
2022/10/31 09:54:04;;;;;;;12.93;10.43;;;12.80;99.90;;;;;;5113058;28;20219;-86
2022/10/31 09:56:34;;;;;;;11.35;10.10;;;12.80;99.90;;;;;;5113345;28;20214;-86
2022/10/31 09:59:05;;;;;;;13.50;10.48;;;12.80;99.90;;;;;;5112713;28;20210;-86
2022/10/31 10:01:41;;;;;;;13.52;11.45;;;12.90;99.90;;;;;;5113045;28;20244;-86
2022/10/31 10:04:29;;;;;;;11.27;10.18;;;12.90;99.90;;;;;;5113416;28;20214;-86
2022/10/31 10:07:01;;;;;;;12.13;10.50;;;12.90;99.90;;;;;;5115543;28;20207;-86
2022/10/31 10:09:30;;;;;;;10.57;9.52;;;12.90;99.90;;;;;;5114636;28;20214;-86
2022/10/31 10:12:09;;;;;;;12.90;11.52;;;12.90;99.90;;;;;;5115258;28;20238;-84
2022/10/31 10:14:49;;;;;;;11.32;9.88;;;12.80;99.90;;;;;;5117146;28;20199;-85
2022/10/31 10:17:28;;;;;;;13.77;11.20;;;12.80;99.90;;;;;;5116850;28;20211;-85
2022/10/31 10:20:21;;;;;;;12.07;10.65;;;12.90;99.90;;;;;;5116651;28;20231;-84
2022/10/31 10:22:56;;;;;;;15.02;11.55;;;12.90;99.90;;;;;;5116971;28;20310;-87
2022/10/31 10:25:29;;;;;;;12.23;10.93;;;12.90;99.90;;;;;;5116838;28;20213;-85
2022/10/31 10:28:08;;;;;;;17.15;12.20;;;13.00;99.90;;;;;;5116744;28;20204;-84
2022/10/31 10:30:41;;;;;;;13.02;11.73;;;13.00;99.90;;;;;;5116238;28;20237;-84
2022/10/31 10:33:13;;;;;;;15.32;13.27;;;13.00;99.90;;;;;;5116659;28;20219;-84
2022/10/31 10:35:47;;;;;;;14.25;12.75;;;13.10;99.90;;;;;;5116495;28;20199;-84
2022/10/31 10:38:23;;;;;;;16.00;13.43;;;13.20;99.90;;;;;;5116326;28;20200;-84
2022/10/31 10:40:53;;;;;;;13.75;12.32;;;13.30;99.90;;;;;;5116542;28;20223;-85
2022/10/31 10:43:25;;;;;;;15.32;12.35;;;13.30;99.90;;;;;;5116725;28;20195;-85
2022/10/31 10:49:13;;;;;;;16.33;12.98;;;13.40;99.90;;;;;;5115870;28;20206;-86
2022/10/31 10:51:45;;;;;;;17.35;13.27;;;13.40;99.90;;;;;;5116166;28;20227;-85
2022/10/31 10:54:55;;;;;;;15.75;13.23;;;13.40;99.90;;;;;;5115953;28;20216;-84
2022/10/31 10:57:32;;;;;;;19.48;15.27;;;13.40;99.90;;;;;;5116449;28;20210;-85
2022/10/31 11:00:17;;;;;;;14.32;12.77;;;13.40;99.90;;;;;;5115429;28;20215;-85
2022/10/31 11:02:46;;;;;;;15.93;14.38;;;13.40;99.90;;;;;;5116466;28;20200;-85
2022/10/31 11:05:25;;;;;;;15.32;13.73;;;13.40;99.90;;;;;;5115972;28;20203;-85
2022/10/31 11:07:54;;;;;;;20.13;14.63;;;13.40;99.90;;;;;;5116081;28;20230;-86
2022/10/31 11:10:24;;;;;;;15.32;13.85;;;13.40;99.90;;;;;;5115423;28;20280;-85
2022/10/31 11:13:03;;;;;;;14.82;13.30;;;13.40;99.90;;;;;;5115941;28;20220;-86
2022/10/31 11:15:35;;;;;;;14.57;13.18;;;13.40;99.90;;;;;;5115503;28;20211;-86
2022/10/31 11:18:04;;;;;;;14.32;12.90;;;13.40;99.90;;;;;;5115583;28;20264;-86
2022/10/31 11:20:34;;;;;;;16.23;14.23;;;13.40;99.90;;;;;;5115444;28;20224;-86
2022/10/31 11:23:17;;;;;;;17.98;14.52;;;13.40;99.90;;;;;;5115770;28;20199;-86
2022/10/31 11:25:58;;;;;;;14.93;12.93;;;13.40;99.90;;;;;;5115625;28;20207;-86
2022/10/31 11:28:29;;;;;;;19.38;13.63;;;13.40;99.90;;;;;;5115331;28;20207;-86
2022/10/31 11:30:59;;;;;;;15.15;13.40;;;13.30;99.90;;;;;;5115871;28;20227;-86
2022/10/31 11:33:32;;;;;;;15.05;13.02;;;13.30;99.90;;;;;;5115569;28;20258;-87
2022/10/31 11:36:03;;;;;;;15.60;13.93;;;13.30;99.90;;;;;;5115561;28;20219;-87
2022/10/31 11:38:40;;;;;;;20.23;15.75;;;13.30;99.90;;;;;;5114882;28;20219;-87
2022/10/31 11:41:13;;;;;;;21.63;16.38;;;13.30;99.90;;;;;;5115483;28;20219;-86
2022/10/31 11:43:50;;;;;;;19.17;15.68;;;13.20;99.90;;;;;;5115657;28;20208;-87
2022/10/31 11:46:24;;;;;;;17.88;15.52;;;13.20;99.90;;;;;;5115371;28;20199;-87
2022/10/31 11:48:56;;;;;;;20.15;14.70;;;13.20;99.90;;;;;;5114694;28;20203;-87
2022/10/31 11:51:27;;;;;;;20.35;15.80;;;13.20;99.90;;;;;;5115732;28;20220;-87
2022/10/31 11:53:57;;;;;;;16.92;15.20;;;13.10;99.90;;;;;;5115280;28;20219;-86
2022/10/31 11:56:40;;;;;;;23.27;15.93;;;13.10;99.90;;;;;;5115235;28;20203;-87
2022/10/31 11:59:23;;;;;;;22.33;16.30;;;13.10;99.90;;;;;;5114500;28;20209;-86
2022/10/31 12:01:53;;;;;;;19.50;16.60;;;13.20;99.90;;;;;;5115266;28;20245;-87
2022/10/31 12:04:36;;;;;;;24.13;19.40;;;13.10;99.90;;;;;;5115008;28;20250;-86
2022/10/31 12:07:04;;;;;;;23.42;17.88;;;13.20;99.90;;;;;;5114574;28;20200;-86
2022/10/31 12:09:35;;;;;;;18.27;16.42;;;13.20;99.90;;;;;;5114271;28;20206;-87
2022/10/31 12:12:34;;;;;;;19.83;17.70;;;13.20;99.90;;;;;;5114887;28;20207;-86
2022/10/31 12:15:15;;;;;;;19.42;17.48;;;13.20;99.90;;;;;;5114496;28;20234;-86
2022/10/31 12:17:50;;;;;;;20.58;18.10;;;13.20;99.90;;;;;;5114714;28;20218;-86
2022/10/31 12:20:27;;;;;;;22.73;19.55;;;13.20;99.90;;;;;;5114034;28;20231;-86
2022/10/31 12:23:03;;;;;;;26.77;20.10;;;13.20;99.90;;;;;;5114929;28;20203;-86
2022/10/31 12:25:40;;;;;;;27.98;22.70;;;13.20;99.90;;;;;;5114753;28;20203;-86
2022/10/31 12:28:34;;;;;;;35.10;25.52;;;13.20;99.90;;;;;;5114574;28;20214;-86
2022/10/31 12:31:22;;;;;;;34.53;25.38;;;13.20;99.90;;;;;;5114071;28;20244;-85
2022/10/31 12:34:02;;;;;;;32.15;24.55;;;13.30;99.90;;;;;;5114378;28;20250;-86
2022/10/31 12:36:47;;;;;;;28.80;24.88;;;13.30;99.90;;;;;;5114386;28;20214;-86
2022/10/31 12:39:30;;;;;;;34.47;25.77;;;13.30;99.90;;;;;;5113524;28;20203;-86
2022/10/31 12:42:07;;;;;;;28.05;24.80;;;13.30;99.90;;;;;;5114403;28;20224;-86
2022/10/31 12:44:58;;;;;;;31.30;25.58;;;13.30;99.90;;;;;;5114308;28;20200;-86
2022/10/31 12:47:47;;;;;;;34.50;26.02;;;13.30;99.90;;;;;;5111197;28;20208;-86
2022/10/31 12:50:29;;;;;;;32.13;27.73;;;13.30;99.90;;;;;;5113565;28;20239;-86
2022/10/31 12:53:08;;;;;;;30.25;26.08;;;13.30;99.90;;;;;;5114594;28;20207;-86
2022/10/31 12:55:47;;;;;;;39.78;26.95;;;13.30;99.90;;;;;;5113600;28;20280;-86
2022/10/31 12:58:22;;;;;;;32.42;27.05;;;13.30;99.90;;;;;;5113937;28;20203;-86
2022/10/31 13:01:03;;;;;;;38.15;26.73;;;13.30;99.90;;;;;;5113917;28;20223;-86
2022/10/31 13:03:39;;;;;;;31.50;27.55;;;13.20;99.90;;;;;;5114418;28;20208;-87
2022/10/31 13:06:12;;;;;;;33.53;27.92;;;13.20;99.90;;;;;;5113868;28;20203;-86